staypoland.com alexa rank chart, staypoland.com alexa rank daily changes

staypoland.com alexa rank chart, staypoland.com alexa rank daily changes

staypoland.com
Actual rank:
267 747

RANK HISTORY

Date Rank Diff
2017/01/21 267 747 -2 590
2017/01/20 270 337 +1 566
2017/01/19 268 771 -5 383
2017/01/18 274 154 -2 816
2017/01/17 276 970 +7 800
2017/01/16 269 170 +3 365
2017/01/15 265 805 -2 239
2017/01/14 268 044 -1 190
2017/01/13 269 234 +2 013
2017/01/12 267 221 -6 671
2017/01/11 273 892 -1 118
2017/01/10 275 010 +6 093
2017/01/09 268 917 +966
2017/01/08 267 951 +1 986
2017/01/07 265 965 -14 594
2017/01/06 280 559 +297
2017/01/05 280 262 +1 179
2017/01/04 279 083 +10 604
2017/01/03 268 479 -4 065
2017/01/02 272 544 +6 832
2017/01/01 265 712 +1 369
2016/12/31 264 343 +5 391
2016/12/30 258 952 +2 836
2016/12/29 256 116 -316
2016/12/28 256 432 -9 552
2016/12/27 265 984 +2 895
2016/12/26 263 089 -7 918
2016/12/25 271 007 +5 029
2016/12/24 265 978 +3 040
2016/12/23 262 938 +4 275
2016/12/22 258 663 +10 326
2016/12/21 248 337 -229
2016/12/20 248 566 -6 042
2016/12/19 254 608 +4 893
2016/12/18 249 715 +1 280
2016/12/17 248 435 -2 124
2016/12/16 250 559 -1 315
2016/12/15 251 874 -6 715
2016/12/14 258 589 -4 257
2016/12/13 262 846 -4 580
2016/12/12 267 426 +3 132
2016/12/11 264 294 -1 459
2016/12/10 265 753 -2 656
2016/12/09 268 409 +7 283
2016/12/08 261 126 -308
2016/12/07 261 434 -1 627
2016/12/06 263 061 +4 020
2016/12/05 259 041 +275
2016/12/04 258 766 -7 287
2016/12/02 266 053 -8 469
2016/12/01 274 522 +3 302
2016/11/30 271 220 +6 022
2016/11/29 265 198 +11 496
2016/11/28 253 702 +96
2016/11/27 253 606 +5 469
2016/11/26 248 137 +7 932
2016/11/25 240 205 +8 924
2016/11/24 231 281 -2 414
2016/11/23 233 695

WIDGET FOR YOUR SITE

DOMAINS WITH THE NEAREST RANK

Domain Rank
blog-cannabis.com 267 742
ice-nut.ru 267 743
salons.jp 267 744
apartum.com 267 745
signkingdom.jp 267 746
staypoland.com 267 747
gpl4you.com 267 748
moj-film.hr 267 749
24upgradecheck45678safesystems.space 267 750
codebazan.ir 267 751
zgig.ir 267 752

DOMAINS WITH THE NEAREST RANK BY TLD .com

Domain Rank
411ero.com 267 739
vidproxy.com 267 740
attheregister.com 267 741
blog-cannabis.com 267 742
apartum.com 267 745
staypoland.com 267 747
gpl4you.com 267 748
henleyglobal.com 267 753
whatsbestforum.com 267 754
danijohnson.com 267 756
itigershop.com 267 757